Date,TemperatureHighF,TemperatureAvgF,TemperatureLowF,DewpointHighF,DewpointAvgF,DewpointLowF,HumidityHigh,HumidityAvg,HumidityLow,PressureMaxIn,PressureMinIn,WindSpeedMaxMPH,WindSpeedAvgMPH,GustSpeedMaxMPH,PrecipitationSumIn
2013-1-1,81.0,67.3,56.0,65.0,60.3,54.0,95,80,55,30.19,30.02,10,1,12,0.00
2013-1-2,82.0,67.1,55.0,70.0,62.1,54.0,97,85,64,30.07,29.98,6,0,10,0.00
2013-1-3,84.0,69.3,60.0,72.0,64.4,58.0,97,86,53,30.11,30.01,5,0,10,0.01
2013-1-4,84.0,70.8,63.0,72.0,67.2,61.0,96,89,67,30.22,30.09,3,0,5,0.03
2013-1-5,80.0,69.5,63.0,70.0,65.1,61.0,95,86,69,30.24,30.13,4,1,9,0.02
2013-1-6,86.0,70.6,62.0,73.0,66.3,60.0,97,87,59,30.17,30.03,3,0,8,0.00
2013-1-7,79.0,72.2,66.0,71.0,68.1,64.0,95,87,74,30.14,30.06,7,1,10,0.01
2013-1-8,86.0,78.6,69.0,73.0,69.6,68.0,96,75,57,30.17,30.07,3,0,10,0.00
2013-1-9,86.0,76.4,69.0,73.0,69.0,66.0,96,79,56,30.24,30.13,9,1,10,0.01
2013-1-10,86.0,73.9,65.0,70.0,66.3,62.0,95,78,47,30.26,30.14,6,1,13,0.01
2013-1-11,85.0,70.4,59.0,70.0,63.4,58.0,96,80,52,30.24,30.11,5,0,10,0.00
2013-1-12,84.0,71.0,62.0,71.0,65.1,60.0,96,83,58,30.15,30.04,5,0,10,0.01
2013-1-13,84.0,68.8,58.0,70.0,62.8,56.0,96,83,59,30.10,30.03,3,0,13,0.01
2013-1-14,83.0,68.1,57.0,67.0,61.1,55.0,96,80,54,30.15,30.08,4,0,8,0.00
2013-1-15,83.0,71.9,56.0,70.0,64.0,54.0,96,78,55,30.12,30.02,4,0,8,0.01
2013-1-16,86.0,69.6,55.0,69.0,62.4,54.0,96,80,52,30.09,29.99,4,0,10,0.01
2013-1-17,83.0,68.8,60.0,72.0,62.6,53.0,96,82,60,30.10,29.98,7,1,17,0.00
2013-1-18,68.0,59.3,50.0,57.0,51.1,42.0,92,75,59,30.27,30.10,4,1,9,0.00
2013-1-19,76.0,67.4,60.0,66.0,62.3,57.0,93,84,70,30.21,30.08,3,0,8,0.00
2013-1-20,81.0,70.0,65.0,69.0,65.2,63.0,95,86,63,30.14,30.00,3,0,8,0.00
2013-1-21,78.0,67.6,61.0,69.0,63.9,59.0,96,89,71,30.08,29.99,4,0,10,0.00
2013-1-22,73.0,63.7,55.0,61.0,54.7,47.0,95,74,54,30.23,30.03,5,0,10,0.00
2013-1-23,74.0,60.9,52.0,55.0,48.8,44.0,84,66,44,30.31,30.21,4,1,10,0.00
2013-1-24,77.0,59.7,47.0,54.0,47.3,42.0,93,69,32,30.29,30.19,3,0,6,0.00
2013-1-25,78.0,58.9,42.0,58.0,50.0,40.0,96,76,43,30.29,30.16,3,0,8,0.00
2013-1-26,81.0,60.6,44.0,56.0,49.7,42.0,95,73,32,30.25,30.14,4,0,7,0.00
2013-1-27,82.0,65.9,50.0,63.0,56.3,48.0,96,74,47,30.26,30.17,9,1,9,0.00
2013-1-28,84.0,70.4,59.0,67.0,61.2,56.0,95,75,50,30.28,30.17,5,0,10,0.00
2013-1-29,84.0,70.8,58.0,70.0,63.9,56.0,96,80,56,30.22,30.07,5,0,11,0.00
2013-1-30,83.0,71.1,61.0,69.0,65.0,59.0,95,82,57,30.09,29.95,7,1,13,0.00
2013-1-31,70.0,62.7,50.0,64.0,54.1,39.0,95,75,50,30.19,29.97,5,1,7,0.12